sensor_id;sensor_type;location;lat;lon;timestamp;P1;durP1;ratioP1;P2;durP2;ratioP2
40591;SDS011;26301;42.832;23.918;2023-08-06T00:01:18;4.47;;;1.70;;
40591;SDS011;26301;42.832;23.918;2023-08-06T00:03:46;1.85;;;1.50;;
40591;SDS011;26301;42.832;23.918;2023-08-06T00:06:12;3.85;;;2.20;;
40591;SDS011;26301;42.832;23.918;2023-08-06T00:08:38;2.53;;;1.73;;
40591;SDS011;26301;42.832;23.918;2023-08-06T00:11:04;2.55;;;2.00;;
40591;SDS011;26301;42.832;23.918;2023-08-06T00:13:30;3.67;;;1.95;;
40591;SDS011;26301;42.832;23.918;2023-08-06T00:15:55;2.88;;;1.70;;
40591;SDS011;26301;42.832;23.918;2023-08-06T00:18:32;3.50;;;1.65;;
40591;SDS011;26301;42.832;23.918;2023-08-06T00:20:58;5.05;;;2.83;;
40591;SDS011;26301;42.832;23.918;2023-08-06T00:23:25;5.35;;;1.83;;
40591;SDS011;26301;42.832;23.918;2023-08-06T00:25:51;6.63;;;2.42;;
40591;SDS011;26301;42.832;23.918;2023-08-06T00:28:17;12.80;;;3.47;;
40591;SDS011;26301;42.832;23.918;2023-08-06T00:30:44;9.05;;;2.78;;
40591;SDS011;26301;42.832;23.918;2023-08-06T00:33:10;5.88;;;2.80;;
40591;SDS011;26301;42.832;23.918;2023-08-06T00:35:36;6.15;;;2.38;;
40591;SDS011;26301;42.832;23.918;2023-08-06T00:38:02;5.60;;;2.17;;
40591;SDS011;26301;42.832;23.918;2023-08-06T00:40:28;6.75;;;2.60;;
40591;SDS011;26301;42.832;23.918;2023-08-06T00:42:55;8.52;;;2.67;;
40591;SDS011;26301;42.832;23.918;2023-08-06T00:45:21;7.82;;;3.20;;
40591;SDS011;26301;42.832;23.918;2023-08-06T00:47:48;7.05;;;2.50;;
40591;SDS011;26301;42.832;23.918;2023-08-06T00:50:14;5.68;;;2.70;;
40591;SDS011;26301;42.832;23.918;2023-08-06T00:52:41;4.57;;;2.38;;
40591;SDS011;26301;42.832;23.918;2023-08-06T00:55:07;4.03;;;2.25;;
40591;SDS011;26301;42.832;23.918;2023-08-06T00:57:33;5.00;;;3.00;;
40591;SDS011;26301;42.832;23.918;2023-08-06T00:59:59;5.97;;;2.40;;
40591;SDS011;26301;42.832;23.918;2023-08-06T01:02:26;5.18;;;2.85;;
40591;SDS011;26301;42.832;23.918;2023-08-06T01:04:52;5.75;;;2.50;;
40591;SDS011;26301;42.832;23.918;2023-08-06T01:13:47;5.28;;;2.33;;
40591;SDS011;26301;42.832;23.918;2023-08-06T01:16:17;4.82;;;2.50;;
40591;SDS011;26301;42.832;23.918;2023-08-06T01:18:47;6.72;;;2.13;;
40591;SDS011;26301;42.832;23.918;2023-08-06T01:21:18;5.55;;;2.58;;
40591;SDS011;26301;42.832;23.918;2023-08-06T01:23:45;3.83;;;2.65;;
40591;SDS011;26301;42.832;23.918;2023-08-06T01:26:19;3.67;;;2.65;;
40591;SDS011;26301;42.832;23.918;2023-08-06T01:31:34;5.93;;;2.80;;
40591;SDS011;26301;42.832;23.918;2023-08-06T01:34:02;5.28;;;2.53;;
40591;SDS011;26301;42.832;23.918;2023-08-06T01:36:31;9.40;;;2.97;;
40591;SDS011;26301;42.832;23.918;2023-08-06T01:38:57;6.07;;;2.65;;
40591;SDS011;26301;42.832;23.918;2023-08-06T01:41:24;4.32;;;2.38;;
40591;SDS011;26301;42.832;23.918;2023-08-06T01:43:50;6.03;;;2.83;;
40591;SDS011;26301;42.832;23.918;2023-08-06T01:46:17;7.35;;;2.63;;
40591;SDS011;26301;42.832;23.918;2023-08-06T01:48:43;4.18;;;2.88;;
40591;SDS011;26301;42.832;23.918;2023-08-06T01:51:09;4.43;;;2.42;;
40591;SDS011;26301;42.832;23.918;2023-08-06T01:53:35;5.03;;;2.55;;
40591;SDS011;26301;42.832;23.918;2023-08-06T01:56:01;4.70;;;2.75;;
40591;SDS011;26301;42.832;23.918;2023-08-06T01:58:28;5.38;;;2.97;;
40591;SDS011;26301;42.832;23.918;2023-08-06T02:00:55;5.10;;;2.60;;
40591;SDS011;26301;42.832;23.918;2023-08-06T02:03:21;5.30;;;2.78;;
40591;SDS011;26301;42.832;23.918;2023-08-06T02:05:52;5.80;;;2.30;;
40591;SDS011;26301;42.832;23.918;2023-08-06T02:08:18;3.60;;;2.50;;
40591;SDS011;26301;42.832;23.918;2023-08-06T02:10:47;3.45;;;2.47;;
40591;SDS011;26301;42.832;23.918;2023-08-06T02:13:15;3.20;;;2.50;;
40591;SDS011;26301;42.832;23.918;2023-08-06T02:15:42;4.63;;;2.53;;
40591;SDS011;26301;42.832;23.918;2023-08-06T02:18:09;4.00;;;2.50;;
40591;SDS011;26301;42.832;23.918;2023-08-06T02:20:36;5.38;;;2.53;;
40591;SDS011;26301;42.832;23.918;2023-08-06T02:23:01;4.53;;;2.45;;
40591;SDS011;26301;42.832;23.918;2023-08-06T02:25:45;5.68;;;2.70;;
40591;SDS011;26301;42.832;23.918;2023-08-06T02:28:11;6.57;;;2.65;;
40591;SDS011;26301;42.832;23.918;2023-08-06T02:30:37;4.07;;;2.88;;
40591;SDS011;26301;42.832;23.918;2023-08-06T02:33:03;3.33;;;2.33;;
40591;SDS011;26301;42.832;23.918;2023-08-06T02:35:30;4.78;;;2.70;;
40591;SDS011;26301;42.832;23.918;2023-08-06T02:37:56;4.03;;;2.50;;
40591;SDS011;26301;42.832;23.918;2023-08-06T02:40:22;5.63;;;2.63;;
40591;SDS011;26301;42.832;23.918;2023-08-06T02:42:49;4.82;;;2.72;;
40591;SDS011;26301;42.832;23.918;2023-08-06T02:45:14;3.50;;;2.40;;
40591;SDS011;26301;42.832;23.918;2023-08-06T02:47:41;4.38;;;2.60;;
40591;SDS011;26301;42.832;23.918;2023-08-06T02:50:07;4.00;;;2.53;;
40591;SDS011;26301;42.832;23.918;2023-08-06T02:52:33;4.63;;;2.50;;
40591;SDS011;26301;42.832;23.918;2023-08-06T02:55:00;3.20;;;2.53;;
40591;SDS011;26301;42.832;23.918;2023-08-06T02:57:26;5.55;;;3.20;;
40591;SDS011;26301;42.832;23.918;2023-08-06T02:59:52;3.22;;;2.67;;
40591;SDS011;26301;42.832;23.918;2023-08-06T03:02:18;4.30;;;2.55;;
40591;SDS011;26301;42.832;23.918;2023-08-06T03:04:44;3.40;;;2.90;;
40591;SDS011;26301;42.832;23.918;2023-08-06T03:07:12;4.38;;;3.03;;
40591;SDS011;26301;42.832;23.918;2023-08-06T03:09:40;3.30;;;2.55;;
40591;SDS011;26301;42.832;23.918;2023-08-06T03:12:06;3.47;;;2.60;;
40591;SDS011;26301;42.832;23.918;2023-08-06T03:14:33;3.40;;;2.80;;
40591;SDS011;26301;42.832;23.918;2023-08-06T03:17:04;5.05;;;2.78;;
40591;SDS011;26301;42.832;23.918;2023-08-06T03:19:31;3.85;;;2.88;;
40591;SDS011;26301;42.832;23.918;2023-08-06T03:21:57;7.43;;;2.70;;
40591;SDS011;26301;42.832;23.918;2023-08-06T03:24:23;6.72;;;2.83;;
40591;SDS011;26301;42.832;23.918;2023-08-06T03:26:48;4.50;;;2.80;;
40591;SDS011;26301;42.832;23.918;2023-08-06T03:29:15;3.95;;;2.60;;
40591;SDS011;26301;42.832;23.918;2023-08-06T03:31:41;3.95;;;2.40;;
40591;SDS011;26301;42.832;23.918;2023-08-06T03:34:07;6.75;;;2.72;;
40591;SDS011;26301;42.832;23.918;2023-08-06T03:36:33;4.05;;;2.67;;
40591;SDS011;26301;42.832;23.918;2023-08-06T03:38:59;5.72;;;2.75;;
40591;SDS011;26301;42.832;23.918;2023-08-06T03:41:25;3.90;;;2.65;;
40591;SDS011;26301;42.832;23.918;2023-08-06T03:43:52;5.78;;;2.80;;
40591;SDS011;26301;42.832;23.918;2023-08-06T03:46:18;3.30;;;2.53;;
40591;SDS011;26301;42.832;23.918;2023-08-06T03:48:44;6.03;;;2.90;;
40591;SDS011;26301;42.832;23.918;2023-08-06T03:51:12;3.50;;;2.60;;
40591;SDS011;26301;42.832;23.918;2023-08-06T03:53:38;3.95;;;2.88;;
40591;SDS011;26301;42.832;23.918;2023-08-06T03:56:04;5.40;;;3.22;;
40591;SDS011;26301;42.832;23.918;2023-08-06T03:58:30;5.97;;;2.88;;
40591;SDS011;26301;42.832;23.918;2023-08-06T04:01:08;4.25;;;2.50;;
40591;SDS011;26301;42.832;23.918;2023-08-06T04:03:35;4.45;;;2.85;;
40591;SDS011;26301;42.832;23.918;2023-08-06T04:06:04;4.65;;;3.00;;
40591;SDS011;26301;42.832;23.918;2023-08-06T04:08:30;4.35;;;2.72;;
40591;SDS011;26301;42.832;23.918;2023-08-06T04:10:57;4.28;;;2.65;;
40591;SDS011;26301;42.832;23.918;2023-08-06T04:13:23;7.45;;;2.25;;
40591;SDS011;26301;42.832;23.918;2023-08-06T04:15:49;10.38;;;2.83;;
40591;SDS011;26301;42.832;23.918;2023-08-06T04:18:16;16.98;;;3.33;;
40591;SDS011;26301;42.832;23.918;2023-08-06T04:20:43;7.13;;;2.20;;
40591;SDS011;26301;42.832;23.918;2023-08-06T04:23:10;4.05;;;1.92;;
40591;SDS011;26301;42.832;23.918;2023-08-06T04:25:38;5.95;;;2.20;;
40591;SDS011;26301;42.832;23.918;2023-08-06T04:28:07;4.18;;;2.15;;
40591;SDS011;26301;42.832;23.918;2023-08-06T04:30:34;6.95;;;2.60;;
40591;SDS011;26301;42.832;23.918;2023-08-06T04:33:00;5.18;;;2.15;;
40591;SDS011;26301;42.832;23.918;2023-08-06T04:35:26;4.88;;;2.20;;
40591;SDS011;26301;42.832;23.918;2023-08-06T04:37:58;6.88;;;2.70;;
40591;SDS011;26301;42.832;23.918;2023-08-06T04:40:27;6.07;;;2.20;;
40591;SDS011;26301;42.832;23.918;2023-08-06T04:42:53;6.45;;;2.38;;
40591;SDS011;26301;42.832;23.918;2023-08-06T04:45:19;12.23;;;3.60;;
40591;SDS011;26301;42.832;23.918;2023-08-06T04:47:45;7.55;;;2.60;;
40591;SDS011;26301;42.832;23.918;2023-08-06T04:50:11;11.43;;;2.88;;
40591;SDS011;26301;42.832;23.918;2023-08-06T04:52:38;6.72;;;2.55;;
40591;SDS011;26301;42.832;23.918;2023-08-06T04:55:04;7.18;;;2.58;;
40591;SDS011;26301;42.832;23.918;2023-08-06T04:57:31;11.13;;;2.85;;
40591;SDS011;26301;42.832;23.918;2023-08-06T04:59:57;7.25;;;2.95;;
40591;SDS011;26301;42.832;23.918;2023-08-06T05:02:23;6.63;;;2.72;;
40591;SDS011;26301;42.832;23.918;2023-08-06T05:04:49;6.78;;;2.72;;
40591;SDS011;26301;42.832;23.918;2023-08-06T05:07:15;5.95;;;2.88;;
40591;SDS011;26301;42.832;23.918;2023-08-06T05:09:42;5.00;;;2.70;;
40591;SDS011;26301;42.832;23.918;2023-08-06T05:12:09;6.13;;;2.80;;
40591;SDS011;26301;42.832;23.918;2023-08-06T05:14:37;4.50;;;2.28;;
40591;SDS011;26301;42.832;23.918;2023-08-06T05:17:04;4.15;;;2.30;;
40591;SDS011;26301;42.832;23.918;2023-08-06T05:19:30;7.07;;;2.33;;
40591;SDS011;26301;42.832;23.918;2023-08-06T05:21:56;5.38;;;2.60;;
40591;SDS011;26301;42.832;23.918;2023-08-06T05:24:22;5.35;;;1.98;;
40591;SDS011;26301;42.832;23.918;2023-08-06T05:26:49;3.83;;;1.98;;
40591;SDS011;26301;42.832;23.918;2023-08-06T05:29:16;5.18;;;2.30;;
40591;SDS011;26301;42.832;23.918;2023-08-06T05:31:42;4.88;;;2.08;;
40591;SDS011;26301;42.832;23.918;2023-08-06T05:34:09;5.32;;;2.00;;
40591;SDS011;26301;42.832;23.918;2023-08-06T05:36:36;3.35;;;1.75;;
40591;SDS011;26301;42.832;23.918;2023-08-06T05:39:02;3.28;;;1.88;;
40591;SDS011;26301;42.832;23.918;2023-08-06T05:41:28;2.50;;;1.70;;
40591;SDS011;26301;42.832;23.918;2023-08-06T05:43:54;2.85;;;1.70;;
40591;SDS011;26301;42.832;23.918;2023-08-06T05:46:20;3.20;;;1.40;;
40591;SDS011;26301;42.832;23.918;2023-08-06T05:48:46;5.82;;;1.73;;
40591;SDS011;26301;42.832;23.918;2023-08-06T05:51:13;2.97;;;1.80;;
40591;SDS011;26301;42.832;23.918;2023-08-06T05:53:42;3.05;;;1.67;;
40591;SDS011;26301;42.832;23.918;2023-08-06T05:56:11;4.60;;;1.73;;
40591;SDS011;26301;42.832;23.918;2023-08-06T05:58:37;5.03;;;1.80;;
40591;SDS011;26301;42.832;23.918;2023-08-06T06:01:03;3.85;;;1.90;;
40591;SDS011;26301;42.832;23.918;2023-08-06T06:03:29;3.88;;;2.00;;
40591;SDS011;26301;42.832;23.918;2023-08-06T06:05:58;5.10;;;1.75;;
40591;SDS011;26301;42.832;23.918;2023-08-06T06:08:26;2.40;;;1.58;;
40591;SDS011;26301;42.832;23.918;2023-08-06T06:11:05;3.17;;;1.70;;
40591;SDS011;26301;42.832;23.918;2023-08-06T06:13:38;3.47;;;1.70;;
40591;SDS011;26301;42.832;23.918;2023-08-06T06:16:07;3.00;;;2.05;;
40591;SDS011;26301;42.832;23.918;2023-08-06T06:18:43;3.22;;;1.48;;
40591;SDS011;26301;42.832;23.918;2023-08-06T06:21:23;3.45;;;1.55;;
40591;SDS011;26301;42.832;23.918;2023-08-06T06:23:49;2.55;;;1.38;;
40591;SDS011;26301;42.832;23.918;2023-08-06T06:26:16;3.22;;;1.48;;
40591;SDS011;26301;42.832;23.918;2023-08-06T06:28:44;3.45;;;1.85;;
40591;SDS011;26301;42.832;23.918;2023-08-06T06:31:12;2.10;;;1.58;;
40591;SDS011;26301;42.832;23.918;2023-08-06T06:33:38;2.95;;;1.60;;
40591;SDS011;26301;42.832;23.918;2023-08-06T06:36:03;2.40;;;1.63;;
40591;SDS011;26301;42.832;23.918;2023-08-06T06:38:29;2.70;;;1.50;;
40591;SDS011;26301;42.832;23.918;2023-08-06T06:40:58;2.95;;;1.50;;
40591;SDS011;26301;42.832;23.918;2023-08-06T06:43:24;5.97;;;1.67;;
40591;SDS011;26301;42.832;23.918;2023-08-06T06:46:00;3.22;;;1.88;;
40591;SDS011;26301;42.832;23.918;2023-08-06T06:48:27;2.67;;;1.88;;
40591;SDS011;26301;42.832;23.918;2023-08-06T06:50:58;2.60;;;1.80;;
40591;SDS011;26301;42.832;23.918;2023-08-06T06:53:25;2.72;;;1.65;;
40591;SDS011;26301;42.832;23.918;2023-08-06T06:55:55;2.15;;;1.50;;
40591;SDS011;26301;42.832;23.918;2023-08-06T06:58:21;2.20;;;1.90;;
40591;SDS011;26301;42.832;23.918;2023-08-06T07:00:47;2.85;;;1.90;;
40591;SDS011;26301;42.832;23.918;2023-08-06T07:03:15;2.55;;;1.92;;
40591;SDS011;26301;42.832;23.918;2023-08-06T07:05:42;4.82;;;2.03;;
40591;SDS011;26301;42.832;23.918;2023-08-06T07:08:08;2.70;;;2.13;;
40591;SDS011;26301;42.832;23.918;2023-08-06T07:10:35;2.63;;;2.15;;
40591;SDS011;26301;42.832;23.918;2023-08-06T07:13:01;2.80;;;2.40;;
40591;SDS011;26301;42.832;23.918;2023-08-06T07:15:27;4.15;;;2.13;;
40591;SDS011;26301;42.832;23.918;2023-08-06T07:17:53;3.15;;;1.77;;
40591;SDS011;26301;42.832;23.918;2023-08-06T07:20:19;2.83;;;1.98;;
40591;SDS011;26301;42.832;23.918;2023-08-06T07:22:45;2.35;;;1.60;;
40591;SDS011;26301;42.832;23.918;2023-08-06T07:25:11;2.28;;;1.50;;
40591;SDS011;26301;42.832;23.918;2023-08-06T07:27:38;5.63;;;2.05;;
40591;SDS011;26301;42.832;23.918;2023-08-06T07:30:04;2.40;;;1.80;;
40591;SDS011;26301;42.832;23.918;2023-08-06T07:32:32;2.55;;;1.98;;
40591;SDS011;26301;42.832;23.918;2023-08-06T07:34:58;2.83;;;2.28;;
40591;SDS011;26301;42.832;23.918;2023-08-06T07:37:28;4.22;;;2.35;;
40591;SDS011;26301;42.832;23.918;2023-08-06T07:39:57;5.68;;;2.20;;
40591;SDS011;26301;42.832;23.918;2023-08-06T07:42:24;5.07;;;2.45;;
40591;SDS011;26301;42.832;23.918;2023-08-06T07:44:54;2.55;;;2.20;;
40591;SDS011;26301;42.832;23.918;2023-08-06T07:47:22;4.35;;;2.33;;
40591;SDS011;26301;42.832;23.918;2023-08-06T07:49:49;4.43;;;2.47;;
40591;SDS011;26301;42.832;23.918;2023-08-06T07:52:14;4.70;;;2.80;;
40591;SDS011;26301;42.832;23.918;2023-08-06T07:54:40;3.42;;;2.70;;
40591;SDS011;26301;42.832;23.918;2023-08-06T07:57:07;4.10;;;2.60;;
40591;SDS011;26301;42.832;23.918;2023-08-06T07:59:34;2.67;;;1.95;;
40591;SDS011;26301;42.832;23.918;2023-08-06T08:02:00;4.03;;;2.40;;
40591;SDS011;26301;42.832;23.918;2023-08-06T08:04:26;4.15;;;2.10;;
40591;SDS011;26301;42.832;23.918;2023-08-06T08:06:52;3.45;;;2.30;;
40591;SDS011;26301;42.832;23.918;2023-08-06T08:09:17;2.88;;;1.95;;
40591;SDS011;26301;42.832;23.918;2023-08-06T08:11:43;3.20;;;2.20;;
40591;SDS011;26301;42.832;23.918;2023-08-06T08:14:09;3.30;;;2.35;;
40591;SDS011;26301;42.832;23.918;2023-08-06T08:16:35;5.82;;;3.35;;
40591;SDS011;26301;42.832;23.918;2023-08-06T08:19:01;3.47;;;2.45;;
40591;SDS011;26301;42.832;23.918;2023-08-06T08:21:29;3.65;;;2.70;;
40591;SDS011;26301;42.832;23.918;2023-08-06T08:23:54;3.90;;;3.05;;
40591;SDS011;26301;42.832;23.918;2023-08-06T08:26:21;4.13;;;3.10;;
40591;SDS011;26301;42.832;23.918;2023-08-06T08:28:47;3.63;;;2.30;;
40591;SDS011;26301;42.832;23.918;2023-08-06T08:31:13;5.40;;;2.28;;
40591;SDS011;26301;42.832;23.918;2023-08-06T08:33:39;5.38;;;2.60;;
40591;SDS011;26301;42.832;23.918;2023-08-06T08:36:05;5.25;;;2.40;;
40591;SDS011;26301;42.832;23.918;2023-08-06T08:38:31;4.22;;;2.50;;
40591;SDS011;26301;42.832;23.918;2023-08-06T08:40:57;4.40;;;2.70;;
40591;SDS011;26301;42.832;23.918;2023-08-06T08:43:23;4.20;;;2.70;;
40591;SDS011;26301;42.832;23.918;2023-08-06T08:45:50;3.92;;;2.58;;
40591;SDS011;26301;42.832;23.918;2023-08-06T08:48:17;4.60;;;2.97;;
40591;SDS011;26301;42.832;23.918;2023-08-06T08:50:45;4.10;;;2.90;;
40591;SDS011;26301;42.832;23.918;2023-08-06T08:53:12;3.97;;;3.08;;
40591;SDS011;26301;42.832;23.918;2023-08-06T08:55:40;5.18;;;3.33;;
40591;SDS011;26301;42.832;23.918;2023-08-06T08:58:08;4.30;;;3.17;;
40591;SDS011;26301;42.832;23.918;2023-08-06T09:00:34;5.22;;;3.25;;
40591;SDS011;26301;42.832;23.918;2023-08-06T09:03:00;5.00;;;3.10;;
40591;SDS011;26301;42.832;23.918;2023-08-06T09:05:31;5.28;;;3.10;;
40591;SDS011;26301;42.832;23.918;2023-08-06T09:08:01;3.88;;;3.05;;
40591;SDS011;26301;42.832;23.918;2023-08-06T09:10:31;4.03;;;3.08;;
40591;SDS011;26301;42.832;23.918;2023-08-06T09:13:01;4.55;;;3.10;;
40591;SDS011;26301;42.832;23.918;2023-08-06T09:15:29;4.55;;;3.08;;
40591;SDS011;26301;42.832;23.918;2023-08-06T09:17:56;7.10;;;3.17;;
40591;SDS011;26301;42.832;23.918;2023-08-06T09:20:28;3.42;;;2.13;;
40591;SDS011;26301;42.832;23.918;2023-08-06T09:22:53;6.38;;;2.40;;
40591;SDS011;26301;42.832;23.918;2023-08-06T09:25:22;4.88;;;2.42;;
40591;SDS011;26301;42.832;23.918;2023-08-06T09:27:50;3.08;;;2.20;;
40591;SDS011;26301;42.832;23.918;2023-08-06T09:30:30;2.38;;;2.10;;
40591;SDS011;26301;42.832;23.918;2023-08-06T09:33:00;3.97;;;2.25;;
40591;SDS011;26301;42.832;23.918;2023-08-06T09:35:30;2.70;;;2.08;;
40591;SDS011;26301;42.832;23.918;2023-08-06T09:38:09;2.63;;;2.10;;
40591;SDS011;26301;42.832;23.918;2023-08-06T09:40:35;3.13;;;2.20;;
40591;SDS011;26301;42.832;23.918;2023-08-06T09:43:05;3.13;;;2.10;;
40591;SDS011;26301;42.832;23.918;2023-08-06T09:45:32;3.13;;;2.17;;
40591;SDS011;26301;42.832;23.918;2023-08-06T09:48:06;3.05;;;2.17;;
40591;SDS011;26301;42.832;23.918;2023-08-06T09:50:33;5.32;;;2.33;;
40591;SDS011;26301;42.832;23.918;2023-08-06T09:53:03;3.75;;;2.33;;
40591;SDS011;26301;42.832;23.918;2023-08-06T09:55:31;4.22;;;2.45;;
40591;SDS011;26301;42.832;23.918;2023-08-06T09:57:58;5.60;;;2.05;;
40591;SDS011;26301;42.832;23.918;2023-08-06T10:00:24;3.17;;;2.20;;
40591;SDS011;26301;42.832;23.918;2023-08-06T10:02:51;2.85;;;1.73;;
40591;SDS011;26301;42.832;23.918;2023-08-06T10:05:21;3.08;;;1.92;;
40591;SDS011;26301;42.832;23.918;2023-08-06T10:07:49;4.32;;;1.95;;
40591;SDS011;26301;42.832;23.918;2023-08-06T10:10:17;4.15;;;2.15;;
40591;SDS011;26301;42.832;23.918;2023-08-06T10:12:51;2.83;;;1.80;;
40591;SDS011;26301;42.832;23.918;2023-08-06T10:15:21;4.50;;;2.30;;
40591;SDS011;26301;42.832;23.918;2023-08-06T10:17:50;4.55;;;2.00;;
40591;SDS011;26301;42.832;23.918;2023-08-06T10:20:20;2.13;;;1.60;;
40591;SDS011;26301;42.832;23.918;2023-08-06T10:23:03;3.65;;;1.60;;
40591;SDS011;26301;42.832;23.918;2023-08-06T10:25:31;2.75;;;2.00;;
40591;SDS011;26301;42.832;23.918;2023-08-06T10:27:58;3.97;;;2.00;;
40591;SDS011;26301;42.832;23.918;2023-08-06T10:32:58;2.97;;;2.05;;
40591;SDS011;26301;42.832;23.918;2023-08-06T10:35:44;2.90;;;1.88;;
40591;SDS011;26301;42.832;23.918;2023-08-06T10:38:22;6.93;;;2.17;;
40591;SDS011;26301;42.832;23.918;2023-08-06T10:43:25;4.20;;;2.17;;
40591;SDS011;26301;42.832;23.918;2023-08-06T10:45:56;2.25;;;1.80;;
40591;SDS011;26301;42.832;23.918;2023-08-06T10:48:29;6.32;;;2.30;;
40591;SDS011;26301;42.832;23.918;2023-08-06T10:50:56;5.88;;;2.28;;
40591;SDS011;26301;42.832;23.918;2023-08-06T10:53:22;2.60;;;1.92;;
40591;SDS011;26301;42.832;23.918;2023-08-06T10:55:49;3.20;;;1.80;;
40591;SDS011;26301;42.832;23.918;2023-08-06T10:58:17;2.60;;;1.70;;
40591;SDS011;26301;42.832;23.918;2023-08-06T11:00:43;4.55;;;2.10;;
40591;SDS011;26301;42.832;23.918;2023-08-06T11:03:09;4.07;;;2.15;;
40591;SDS011;26301;42.832;23.918;2023-08-06T11:05:35;2.85;;;1.80;;
40591;SDS011;26301;42.832;23.918;2023-08-06T11:08:04;4.50;;;1.80;;
40591;SDS011;26301;42.832;23.918;2023-08-06T11:10:32;2.35;;;2.00;;
40591;SDS011;26301;42.832;23.918;2023-08-06T11:13:03;4.65;;;2.20;;
40591;SDS011;26301;42.832;23.918;2023-08-06T11:15:30;3.13;;;2.03;;
40591;SDS011;26301;42.832;23.918;2023-08-06T11:18:00;4.75;;;2.35;;
40591;SDS011;26301;42.832;23.918;2023-08-06T11:20:27;4.85;;;2.40;;
40591;SDS011;26301;42.832;23.918;2023-08-06T11:22:53;3.38;;;2.35;;
40591;SDS011;26301;42.832;23.918;2023-08-06T11:25:20;4.68;;;2.05;;
40591;SDS011;26301;42.832;23.918;2023-08-06T11:27:48;3.35;;;2.13;;
40591;SDS011;26301;42.832;23.918;2023-08-06T11:30:14;5.75;;;2.60;;
40591;SDS011;26301;42.832;23.918;2023-08-06T11:32:46;4.35;;;1.83;;
40591;SDS011;26301;42.832;23.918;2023-08-06T11:35:13;2.47;;;1.90;;
40591;SDS011;26301;42.832;23.918;2023-08-06T11:37:43;3.63;;;1.70;;
40591;SDS011;26301;42.832;23.918;2023-08-06T11:40:18;3.03;;;1.83;;
40591;SDS011;26301;42.832;23.918;2023-08-06T11:42:46;2.85;;;2.03;;
40591;SDS011;26301;42.832;23.918;2023-08-06T11:45:12;2.90;;;1.90;;
40591;SDS011;26301;42.832;23.918;2023-08-06T11:47:39;5.38;;;2.00;;
40591;SDS011;26301;42.832;23.918;2023-08-06T11:50:06;3.83;;;2.17;;
40591;SDS011;26301;42.832;23.918;2023-08-06T11:52:32;2.80;;;2.00;;
40591;SDS011;26301;42.832;23.918;2023-08-06T11:57:35;3.13;;;2.08;;
40591;SDS011;26301;42.832;23.918;2023-08-06T12:00:08;3.60;;;2.03;;
40591;SDS011;26301;42.832;23.918;2023-08-06T12:02:36;3.25;;;2.00;;
40591;SDS011;26301;42.832;23.918;2023-08-06T12:05:04;2.67;;;1.98;;
40591;SDS011;26301;42.832;23.918;2023-08-06T12:07:41;4.20;;;2.15;;
40591;SDS011;26301;42.832;23.918;2023-08-06T12:10:12;2.78;;;2.20;;
40591;SDS011;26301;42.832;23.918;2023-08-06T12:12:38;2.63;;;1.90;;
40591;SDS011;26301;42.832;23.918;2023-08-06T12:15:04;2.47;;;1.83;;
40591;SDS011;26301;42.832;23.918;2023-08-06T12:17:34;3.10;;;1.98;;
40591;SDS011;26301;42.832;23.918;2023-08-06T12:20:01;2.38;;;1.77;;
40591;SDS011;26301;42.832;23.918;2023-08-06T12:22:29;3.33;;;2.05;;
40591;SDS011;26301;42.832;23.918;2023-08-06T12:25:00;3.65;;;2.00;;
40591;SDS011;26301;42.832;23.918;2023-08-06T12:27:28;2.50;;;2.10;;
40591;SDS011;26301;42.832;23.918;2023-08-06T12:29:54;5.88;;;2.03;;
40591;SDS011;26301;42.832;23.918;2023-08-06T12:32:20;5.10;;;2.08;;
40591;SDS011;26301;42.832;23.918;2023-08-06T12:34:47;2.85;;;1.70;;
40591;SDS011;26301;42.832;23.918;2023-08-06T12:37:12;2.70;;;1.80;;
40591;SDS011;26301;42.832;23.918;2023-08-06T12:39:38;2.72;;;1.80;;
40591;SDS011;26301;42.832;23.918;2023-08-06T12:42:05;2.95;;;2.40;;
40591;SDS011;26301;42.832;23.918;2023-08-06T12:44:31;4.75;;;1.88;;
40591;SDS011;26301;42.832;23.918;2023-08-06T12:46:57;2.90;;;1.90;;
40591;SDS011;26301;42.832;23.918;2023-08-06T12:49:24;3.60;;;1.70;;
40591;SDS011;26301;42.832;23.918;2023-08-06T12:51:51;2.72;;;2.08;;
40591;SDS011;26301;42.832;23.918;2023-08-06T12:54:17;2.45;;;1.65;;
40591;SDS011;26301;42.832;23.918;2023-08-06T12:56:44;2.45;;;1.83;;
40591;SDS011;26301;42.832;23.918;2023-08-06T12:59:10;2.20;;;1.85;;
40591;SDS011;26301;42.832;23.918;2023-08-06T13:01:39;2.85;;;2.10;;
40591;SDS011;26301;42.832;23.918;2023-08-06T13:04:05;2.55;;;1.98;;
40591;SDS011;26301;42.832;23.918;2023-08-06T13:06:31;2.92;;;2.08;;
40591;SDS011;26301;42.832;23.918;2023-08-06T13:09:04;3.05;;;2.28;;
40591;SDS011;26301;42.832;23.918;2023-08-06T13:11:35;4.05;;;2.20;;
40591;SDS011;26301;42.832;23.918;2023-08-06T13:16:33;3.35;;;2.10;;
40591;SDS011;26301;42.832;23.918;2023-08-06T13:18:59;2.55;;;2.10;;
40591;SDS011;26301;42.832;23.918;2023-08-06T13:21:31;3.53;;;2.20;;
40591;SDS011;26301;42.832;23.918;2023-08-06T13:23:58;5.30;;;2.22;;
40591;SDS011;26301;42.832;23.918;2023-08-06T13:26:23;3.95;;;2.15;;
40591;SDS011;26301;42.832;23.918;2023-08-06T13:28:49;3.65;;;2.20;;
40591;SDS011;26301;42.832;23.918;2023-08-06T13:31:15;2.75;;;1.92;;
40591;SDS011;26301;42.832;23.918;2023-08-06T13:33:41;2.78;;;2.00;;
40591;SDS011;26301;42.832;23.918;2023-08-06T13:36:07;2.47;;;1.80;;
40591;SDS011;26301;42.832;23.918;2023-08-06T13:38:33;4.93;;;2.20;;
40591;SDS011;26301;42.832;23.918;2023-08-06T13:40:58;5.38;;;2.22;;
40591;SDS011;26301;42.832;23.918;2023-08-06T13:43:24;2.80;;;2.33;;
40591;SDS011;26301;42.832;23.918;2023-08-06T13:45:50;2.20;;;2.00;;
40591;SDS011;26301;42.832;23.918;2023-08-06T13:48:16;4.03;;;2.30;;
40591;SDS011;26301;42.832;23.918;2023-08-06T13:50:41;3.00;;;2.30;;
40591;SDS011;26301;42.832;23.918;2023-08-06T13:53:07;3.03;;;2.00;;
40591;SDS011;26301;42.832;23.918;2023-08-06T13:55:33;3.45;;;2.20;;
40591;SDS011;26301;42.832;23.918;2023-08-06T13:57:59;3.38;;;1.90;;
40591;SDS011;26301;42.832;23.918;2023-08-06T14:00:24;3.72;;;2.08;;
40591;SDS011;26301;42.832;23.918;2023-08-06T14:02:50;3.33;;;2.42;;
40591;SDS011;26301;42.832;23.918;2023-08-06T14:05:16;3.42;;;2.03;;
40591;SDS011;26301;42.832;23.918;2023-08-06T14:07:42;4.15;;;2.38;;
40591;SDS011;26301;42.832;23.918;2023-08-06T14:10:08;5.03;;;2.30;;
40591;SDS011;26301;42.832;23.918;2023-08-06T14:12:34;2.40;;;2.00;;
40591;SDS011;26301;42.832;23.918;2023-08-06T14:15:00;5.43;;;2.55;;
40591;SDS011;26301;42.832;23.918;2023-08-06T14:17:28;3.92;;;2.53;;
40591;SDS011;26301;42.832;23.918;2023-08-06T14:19:54;3.30;;;2.55;;
40591;SDS011;26301;42.832;23.918;2023-08-06T14:22:19;4.00;;;1.95;;
40591;SDS011;26301;42.832;23.918;2023-08-06T14:24:45;2.15;;;1.80;;
40591;SDS011;26301;42.832;23.918;2023-08-06T14:27:12;3.50;;;2.33;;
40591;SDS011;26301;42.832;23.918;2023-08-06T14:29:37;2.85;;;2.40;;
40591;SDS011;26301;42.832;23.918;2023-08-06T14:32:03;3.08;;;2.20;;
40591;SDS011;26301;42.832;23.918;2023-08-06T14:34:29;2.15;;;1.90;;
40591;SDS011;26301;42.832;23.918;2023-08-06T14:36:55;2.70;;;2.13;;
40591;SDS011;26301;42.832;23.918;2023-08-06T14:39:21;2.53;;;2.15;;
40591;SDS011;26301;42.832;23.918;2023-08-06T14:41:47;3.25;;;2.42;;
40591;SDS011;26301;42.832;23.918;2023-08-06T14:44:13;4.60;;;2.50;;
40591;SDS011;26301;42.832;23.918;2023-08-06T14:46:39;3.58;;;2.20;;
40591;SDS011;26301;42.832;23.918;2023-08-06T14:49:04;3.45;;;2.00;;
40591;SDS011;26301;42.832;23.918;2023-08-06T14:51:30;5.28;;;2.22;;
40591;SDS011;26301;42.832;23.918;2023-08-06T14:53:56;2.30;;;1.98;;